Time;durP1;ratioP1;P1;durP2;ratioP2;P2;SDS_P1;SDS_P2;PMS_P1;PMS_P2;Temp;Humidity;BMP_temperature;BMP_pressure;BME280_temperature;BME280_humidity;BME280_pressure;Samples;Min_cycle;Max_cycle;Signal;HPM_P1;HPM_P2
2023/11/28 00:02:39;;;;;;;8.77;6.13;;;2.20;99.90;;;;;;5026309;28;20094;-76
2023/11/28 00:05:25;;;;;;;7.90;6.13;;;2.10;99.90;;;;;;5022799;28;20081;-76
2023/11/28 00:08:11;;;;;;;8.57;6.35;;;2.20;99.90;;;;;;5034011;28;20083;-76
2023/11/28 00:10:57;;;;;;;10.15;6.03;;;2.10;99.90;;;;;;5025514;28;20069;-76
2023/11/28 00:13:44;;;;;;;8.98;6.50;;;2.10;99.90;;;;;;5026275;28;20381;-76
2023/11/28 00:16:30;;;;;;;9.73;6.18;;;2.10;99.90;;;;;;5026490;28;20076;-76
2023/11/28 00:19:17;;;;;;;8.90;6.90;;;2.00;99.90;;;;;;5030085;28;20470;-75
2023/11/28 00:22:03;;;;;;;11.13;8.25;;;2.10;99.90;;;;;;5003638;28;20045;-76
2023/11/28 00:24:49;;;;;;;10.85;6.68;;;2.10;99.90;;;;;;5032995;28;20043;-76
2023/11/28 00:27:36;;;;;;;9.95;6.80;;;2.10;99.90;;;;;;5030606;28;20127;-77
2023/11/28 00:30:23;;;;;;;10.82;7.50;;;2.10;99.90;;;;;;5039071;28;20486;-77
2023/11/28 00:33:09;;;;;;;11.20;7.13;;;2.00;99.90;;;;;;5045902;28;20047;-76
2023/11/28 00:35:55;;;;;;;9.90;6.97;;;2.00;99.90;;;;;;5038579;28;20048;-76
2023/11/28 00:38:41;;;;;;;11.65;7.85;;;2.00;99.90;;;;;;5021361;28;20034;-76
2023/11/28 00:41:27;;;;;;;12.15;8.30;;;2.00;99.90;;;;;;5020691;28;20065;-76
2023/11/28 00:44:13;;;;;;;11.20;8.13;;;2.00;99.90;;;;;;5012577;28;20366;-76
2023/11/28 00:46:59;;;;;;;12.45;8.77;;;2.00;99.90;;;;;;4993639;28;20069;-76
2023/11/28 00:49:45;;;;;;;12.65;8.90;;;2.00;99.90;;;;;;5023703;28;20115;-76
2023/11/28 00:52:32;;;;;;;11.45;7.45;;;2.00;99.90;;;;;;5029975;28;20037;-76
2023/11/28 00:55:18;;;;;;;11.63;8.68;;;2.00;99.90;;;;;;5022311;28;20461;-75
2023/11/28 00:58:04;;;;;;;11.75;8.25;;;2.00;99.90;;;;;;5025897;28;20041;-76
2023/11/28 01:00:50;;;;;;;13.07;8.48;;;2.00;99.90;;;;;;5038421;28;20036;-76
2023/11/28 01:03:38;;;;;;;14.52;9.13;;;2.00;99.90;;;;;;5047780;28;20037;-75
2023/11/28 01:06:25;;;;;;;;;;;2.00;99.90;;;;;;5013351;28;20041;-76
2023/11/28 01:09:14;;;;;;;12.88;8.70;;;2.00;99.90;;;;;;5030914;28;20055;-76
2023/11/28 01:12:00;;;;;;;12.45;9.18;;;2.00;99.90;;;;;;5029514;28;20075;-76
2023/11/28 01:14:47;;;;;;;12.48;8.73;;;2.00;99.90;;;;;;5040606;28;20107;-76
2023/11/28 01:17:33;;;;;;;13.60;8.10;;;2.00;99.90;;;;;;5028188;28;20045;-76
2023/11/28 01:20:19;;;;;;;13.05;8.20;;;1.90;99.90;;;;;;5033598;28;20041;-76
2023/11/28 01:23:06;;;;;;;10.88;7.82;;;1.90;99.90;;;;;;5042829;28;20033;-76
2023/11/28 01:25:52;;;;;;;12.15;7.95;;;1.90;99.90;;;;;;5005948;28;20037;-76
2023/11/28 01:28:38;;;;;;;10.65;7.65;;;1.90;99.90;;;;;;5026331;28;20043;-76
2023/11/28 01:31:24;;;;;;;11.25;7.80;;;1.90;99.90;;;;;;5037213;28;20054;-76
2023/11/28 01:34:10;;;;;;;11.95;8.05;;;2.00;99.90;;;;;;5041237;28;20037;-76
2023/11/28 01:36:56;;;;;;;12.02;7.90;;;1.90;99.90;;;;;;5003510;28;20120;-76
2023/11/28 01:39:44;;;;;;;12.07;7.88;;;1.90;99.90;;;;;;5042947;28;20131;-76
2023/11/28 01:42:32;;;;;;;11.85;7.95;;;1.90;99.90;;;;;;5020408;28;20099;-75
2023/11/28 01:45:21;;;;;;;10.80;8.00;;;1.90;99.90;;;;;;5036885;28;20041;-75
2023/11/28 01:48:08;;;;;;;13.00;7.55;;;1.90;99.90;;;;;;5017426;28;20041;-76
2023/11/28 01:50:54;;;;;;;12.25;8.20;;;1.80;99.90;;;;;;5003267;28;20099;-76
2023/11/28 01:53:40;;;;;;;14.90;7.65;;;1.90;99.90;;;;;;5002429;28;20034;-75
2023/11/28 01:56:26;;;;;;;13.13;8.05;;;1.80;99.90;;;;;;5017019;28;20374;-76
2023/11/28 01:59:13;;;;;;;12.02;7.28;;;1.70;99.90;;;;;;5011829;28;20076;-75
2023/11/28 02:01:59;;;;;;;11.60;7.38;;;1.80;99.90;;;;;;5033928;28;20048;-76
2023/11/28 02:04:45;;;;;;;10.23;6.78;;;1.80;99.90;;;;;;5037785;28;20041;-76
2023/11/28 02:07:31;;;;;;;11.93;7.07;;;1.70;99.90;;;;;;5041466;28;20542;-76
2023/11/28 02:10:18;;;;;;;14.73;8.40;;;1.70;99.90;;;;;;5046735;28;20046;-76
2023/11/28 02:13:04;;;;;;;12.40;7.55;;;1.50;99.90;;;;;;5016518;28;20046;-76
2023/11/28 02:15:50;;;;;;;11.57;7.63;;;1.50;99.90;;;;;;5040485;28;20041;-75
2023/11/28 02:18:38;;;;;;;12.13;7.55;;;1.60;99.90;;;;;;5031614;28;20042;-76
2023/11/28 02:21:24;;;;;;;11.38;7.15;;;1.60;99.90;;;;;;4999435;28;20116;-76
2023/11/28 02:24:12;;;;;;;12.70;7.55;;;1.60;99.90;;;;;;5016545;28;20037;-76
2023/11/28 02:26:58;;;;;;;;;;;1.60;99.90;;;;;;5029523;28;20083;-76
2023/11/28 02:29:45;;;;;;;13.90;7.50;;;1.50;99.90;;;;;;5039793;28;19996;-76
2023/11/28 02:32:32;;;;;;;12.32;8.05;;;1.50;99.90;;;;;;5053569;28;20114;-76
2023/11/28 02:35:18;;;;;;;12.32;7.72;;;1.60;99.90;;;;;;5015745;28;20053;-76
2023/11/28 02:38:04;;;;;;;11.75;7.20;;;1.60;99.90;;;;;;5015514;28;20064;-76
2023/11/28 02:40:50;;;;;;;11.20;7.00;;;1.50;99.90;;;;;;5014718;28;20037;-78
2023/11/28 02:43:36;;;;;;;12.10;7.10;;;1.60;99.90;;;;;;5031483;28;20036;-77
2023/11/28 02:46:22;;;;;;;13.50;6.70;;;1.40;99.90;;;;;;5015253;28;20670;-76
2023/11/28 02:49:09;;;;;;;15.25;7.47;;;1.40;99.90;;;;;;5001155;28;20037;-77
2023/11/28 02:51:55;;;;;;;11.52;7.05;;;1.40;99.90;;;;;;5024463;28;20036;-77
2023/11/28 02:54:42;;;;;;;15.50;8.60;;;1.40;99.90;;;;;;5054481;28;20061;-77
2023/11/28 02:57:28;;;;;;;11.13;7.40;;;1.40;99.90;;;;;;5016835;28;20529;-77
2023/11/28 03:00:15;;;;;;;12.32;7.30;;;1.40;99.90;;;;;;5001726;28;20045;-78
2023/11/28 03:03:01;;;;;;;13.27;7.68;;;1.30;99.90;;;;;;5032212;28;20064;-77
2023/11/28 03:05:47;;;;;;;12.10;7.93;;;1.40;99.90;;;;;;5045618;28;20029;-77
2023/11/28 03:08:33;;;;;;;12.30;7.57;;;1.40;99.90;;;;;;5034593;28;20071;-78
2023/11/28 03:11:19;;;;;;;11.98;7.20;;;1.40;99.90;;;;;;5035961;28;20037;-77
2023/11/28 03:14:06;;;;;;;10.55;7.03;;;1.30;99.90;;;;;;5033563;28;20052;-77
2023/11/28 03:16:52;;;;;;;13.95;8.32;;;1.30;99.90;;;;;;5033125;28;20068;-77
2023/11/28 03:19:38;;;;;;;16.30;8.32;;;1.30;99.90;;;;;;5029816;28;20041;-77
2023/11/28 03:22:24;;;;;;;11.50;7.68;;;1.30;99.90;;;;;;5029266;28;20030;-77
2023/11/28 03:25:13;;;;;;;11.27;7.63;;;1.20;99.90;;;;;;5024363;28;20049;-77
2023/11/28 03:27:59;;;;;;;11.23;6.75;;;1.20;99.90;;;;;;5027991;28;20104;-77
2023/11/28 03:30:45;;;;;;;12.10;6.95;;;1.30;99.90;;;;;;5054407;28;20051;-77
2023/11/28 03:33:34;;;;;;;10.40;7.40;;;1.40;99.90;;;;;;5027569;28;20040;-77
2023/11/28 03:36:20;;;;;;;10.52;7.03;;;1.40;99.90;;;;;;5041827;28;20040;-78
2023/11/28 03:39:06;;;;;;;12.27;6.68;;;1.40;99.90;;;;;;5015251;28;20131;-78
2023/11/28 03:41:52;;;;;;;10.60;7.38;;;1.40;99.90;;;;;;5033700;28;20037;-78
2023/11/28 03:44:38;;;;;;;11.60;6.78;;;1.50;99.90;;;;;;5028534;28;20064;-77
2023/11/28 03:47:24;;;;;;;11.55;6.70;;;1.40;99.90;;;;;;5034805;28;20051;-77
2023/11/28 03:50:11;;;;;;;11.88;6.75;;;1.40;99.90;;;;;;5015283;28;20076;-77
2023/11/28 03:52:57;;;;;;;11.30;6.65;;;1.30;99.90;;;;;;5005004;28;20045;-77
2023/11/28 03:55:43;;;;;;;9.38;6.38;;;1.40;99.90;;;;;;5026653;28;20045;-77
2023/11/28 03:58:29;;;;;;;9.60;6.43;;;1.40;99.90;;;;;;5018111;28;20042;-77
2023/11/28 04:01:15;;;;;;;11.35;7.43;;;1.40;99.90;;;;;;5014826;28;20116;-77
2023/11/28 04:04:01;;;;;;;12.95;7.28;;;1.40;99.90;;;;;;5024146;28;20033;-77
2023/11/28 04:06:47;;;;;;;11.40;7.43;;;1.40;99.90;;;;;;5017130;28;20129;-77
2023/11/28 04:09:35;;;;;;;11.35;7.18;;;1.30;99.90;;;;;;5015585;28;20375;-77
2023/11/28 04:12:21;;;;;;;13.63;8.30;;;1.30;99.90;;;;;;5036626;28;20059;-77
2023/11/28 04:15:07;;;;;;;12.48;8.10;;;1.30;99.90;;;;;;5035418;28;20072;-77
2023/11/28 04:17:53;;;;;;;12.55;7.40;;;1.40;99.90;;;;;;5015376;28;20366;-76
2023/11/28 04:20:40;;;;;;;12.40;6.90;;;1.40;99.90;;;;;;5010883;28;20041;-75
2023/11/28 04:23:26;;;;;;;12.75;7.28;;;1.40;99.90;;;;;;5043007;28;20044;-75
2023/11/28 04:26:12;;;;;;;14.05;7.20;;;1.30;99.90;;;;;;5054764;28;20044;-75
2023/11/28 04:28:58;;;;;;;11.32;6.93;;;1.30;99.90;;;;;;5030640;28;20038;-75
2023/11/28 04:31:44;;;;;;;13.27;7.25;;;1.30;99.90;;;;;;5019659;28;20501;-75
2023/11/28 04:34:30;;;;;;;12.52;6.97;;;1.40;99.90;;;;;;5057573;28;20036;-76
2023/11/28 04:37:16;;;;;;;14.73;8.32;;;1.30;99.90;;;;;;4995394;28;20077;-75
2023/11/28 04:40:04;;;;;;;12.75;7.22;;;1.30;99.90;;;;;;5054387;28;20033;-75
2023/11/28 04:42:50;;;;;;;14.77;8.73;;;1.20;99.90;;;;;;5019630;28;20481;-75
2023/11/28 04:45:37;;;;;;;12.63;7.78;;;1.20;99.90;;;;;;5045611;28;20037;-75
2023/11/28 04:48:23;;;;;;;12.30;7.55;;;1.20;99.90;;;;;;5044448;28;20469;-75
2023/11/28 04:51:09;;;;;;;14.95;8.15;;;1.20;99.90;;;;;;5004429;28;20111;-75
2023/11/28 04:53:55;;;;;;;13.95;8.25;;;1.10;99.90;;;;;;5006467;28;20097;-75
2023/11/28 04:56:41;;;;;;;16.00;8.18;;;1.00;99.90;;;;;;5015960;28;20052;-75
2023/11/28 04:59:27;;;;;;;13.25;7.57;;;1.00;99.90;;;;;;5010417;28;20045;-75
2023/11/28 05:02:14;;;;;;;16.17;7.45;;;1.00;99.90;;;;;;5027868;28;20056;-75
2023/11/28 05:05:00;;;;;;;13.90;7.40;;;0.90;99.90;;;;;;5027860;28;20079;-75
2023/11/28 05:07:46;;;;;;;14.50;7.10;;;1.00;99.90;;;;;;5033870;28;20040;-75
2023/11/28 05:10:32;;;;;;;14.10;6.80;;;1.00;99.90;;;;;;5027015;28;20038;-75
2023/11/28 05:13:18;;;;;;;11.05;6.88;;;0.90;99.90;;;;;;5004880;28;20721;-75
2023/11/28 05:16:04;;;;;;;14.88;8.32;;;1.00;99.90;;;;;;5019702;28;20041;-75
2023/11/28 05:18:50;;;;;;;12.45;6.22;;;1.00;99.90;;;;;;5030502;28;20102;-75
2023/11/28 05:21:38;;;;;;;11.32;6.43;;;0.90;99.90;;;;;;5042717;28;20033;-75
2023/11/28 05:24:24;;;;;;;12.65;6.65;;;0.90;99.90;;;;;;5023397;28;20029;-75
2023/11/28 05:27:10;;;;;;;12.70;6.78;;;0.90;99.90;;;;;;5023257;28;20037;-75
2023/11/28 05:29:56;;;;;;;10.93;6.43;;;0.90;99.90;;;;;;5027724;28;20038;-75
2023/11/28 05:32:42;;;;;;;10.40;6.70;;;0.80;99.90;;;;;;5017211;28;20120;-75
2023/11/28 05:35:28;;;;;;;10.25;5.70;;;0.90;99.90;;;;;;5023968;28;20073;-75
2023/11/28 05:38:15;;;;;;;9.07;5.45;;;0.90;99.90;;;;;;5036408;28;20834;-75
2023/11/28 05:41:01;;;;;;;12.05;5.35;;;0.70;99.90;;;;;;5022913;28;20065;-75
2023/11/28 05:43:47;;;;;;;9.80;5.18;;;0.70;99.90;;;;;;5043425;28;20068;-75
2023/11/28 05:46:33;;;;;;;13.35;5.63;;;0.70;99.90;;;;;;5039216;28;20045;-75
2023/11/28 05:49:19;;;;;;;9.30;5.05;;;0.60;99.90;;;;;;5017197;28;20033;-75
2023/11/28 05:52:06;;;;;;;13.05;6.30;;;0.50;99.90;;;;;;5030544;28;20038;-75
2023/11/28 05:54:52;;;;;;;10.02;5.53;;;0.60;99.90;;;;;;5003833;28;20034;-75
2023/11/28 05:57:40;;;;;;;8.40;4.55;;;0.60;99.90;;;;;;5008837;28;20064;-75
2023/11/28 06:00:27;;;;;;;8.15;4.88;;;0.60;99.90;;;;;;5002414;28;20037;-75
2023/11/28 06:03:13;;;;;;;10.57;4.90;;;0.50;99.90;;;;;;5024357;28;20037;-76
2023/11/28 06:05:59;;;;;;;9.43;4.80;;;0.60;99.90;;;;;;5039763;28;20047;-75
2023/11/28 06:08:47;;;;;;;12.15;5.18;;;0.60;99.90;;;;;;5012858;28;20128;-75
2023/11/28 06:11:33;;;;;;;7.53;4.60;;;0.60;99.90;;;;;;5030796;28;20047;-75
2023/11/28 06:14:20;;;;;;;8.52;4.93;;;0.70;99.90;;;;;;5041692;28;20182;-75
2023/11/28 06:17:07;;;;;;;8.20;4.90;;;0.60;99.90;;;;;;5034648;28;20131;-75
2023/11/28 06:19:53;;;;;;;10.25;4.93;;;0.60;99.90;;;;;;5022033;28;20033;-75
2023/11/28 06:22:39;;;;;;;9.38;4.95;;;0.50;99.90;;;;;;5043610;28;20051;-75
2023/11/28 06:25:25;;;;;;;9.85;5.03;;;0.60;99.90;;;;;;5002222;28;20034;-76
2023/11/28 06:28:11;;;;;;;8.52;4.78;;;0.60;99.90;;;;;;5035127;28;20183;-76
2023/11/28 06:30:57;;;;;;;9.30;5.05;;;0.60;99.90;;;;;;5040875;28;20041;-76
2023/11/28 06:33:43;;;;;;;9.65;5.85;;;0.60;99.90;;;;;;4994819;28;20434;-76
2023/11/28 06:36:29;;;;;;;8.98;4.45;;;0.60;99.90;;;;;;5001987;28;20049;-76
2023/11/28 06:39:18;;;;;;;8.15;4.40;;;0.50;99.90;;;;;;5032317;28;20095;-75
2023/11/28 06:42:06;;;;;;;10.30;5.13;;;0.50;99.90;;;;;;5035664;28;20409;-75
2023/11/28 06:44:52;;;;;;;8.90;4.85;;;0.50;99.90;;;;;;5030347;28;20469;-75
2023/11/28 06:47:39;;;;;;;7.82;4.60;;;0.50;99.90;;;;;;5021127;28;20107;-76
2023/11/28 06:50:25;;;;;;;9.30;4.40;;;0.50;99.90;;;;;;5038551;28;20107;-75
2023/11/28 06:53:11;;;;;;;7.55;4.65;;;0.50;99.90;;;;;;5034608;28;20041;-75
2023/11/28 06:55:57;;;;;;;9.25;4.10;;;0.40;99.90;;;;;;5027503;28;20044;-75
2023/11/28 06:58:43;;;;;;;7.70;4.47;;;0.40;99.90;;;;;;5048710;28;20148;-75
2023/11/28 07:01:29;;;;;;;8.10;4.53;;;0.50;99.90;;;;;;5015575;28;20039;-75
2023/11/28 07:04:15;;;;;;;7.63;3.83;;;0.50;99.90;;;;;;5025559;28;20029;-76
2023/11/28 07:07:02;;;;;;;8.38;4.00;;;0.40;99.90;;;;;;5026579;28;20548;-76
2023/11/28 07:09:49;;;;;;;7.07;4.30;;;0.40;99.90;;;;;;5051314;28;20479;-76
2023/11/28 07:12:35;;;;;;;8.88;4.78;;;0.50;99.90;;;;;;5023153;28;20033;-76
2023/11/28 07:15:21;;;;;;;6.10;3.63;;;0.50;99.90;;;;;;5012892;28;20038;-75
2023/11/28 07:18:08;;;;;;;8.15;4.40;;;0.40;99.90;;;;;;5026979;28;20043;-76
2023/11/28 07:20:55;;;;;;;6.87;3.97;;;0.50;99.90;;;;;;5033039;28;20039;-76
2023/11/28 07:23:43;;;;;;;8.00;3.67;;;0.50;99.90;;;;;;5043361;28;20315;-75
2023/11/28 07:26:29;;;;;;;12.00;3.80;;;0.40;99.90;;;;;;5043690;28;20362;-75
2023/11/28 07:29:15;;;;;;;7.70;3.97;;;0.50;99.90;;;;;;5025970;28;20043;-75
2023/11/28 07:32:01;;;;;;;8.85;4.40;;;0.50;99.90;;;;;;5001093;28;20068;-75
2023/11/28 07:34:48;;;;;;;8.15;3.90;;;0.50;99.90;;;;;;5003046;28;20355;-76
2023/11/28 07:37:34;;;;;;;7.68;4.03;;;0.50;99.90;;;;;;5029058;28;20055;-76
2023/11/28 07:40:21;;;;;;;8.90;4.03;;;0.50;99.90;;;;;;5015868;28;20033;-76
2023/11/28 07:43:08;;;;;;;6.27;3.67;;;0.60;99.90;;;;;;5037556;28;20041;-75
2023/11/28 07:45:54;;;;;;;7.93;3.88;;;0.50;99.90;;;;;;5018054;28;20045;-75
2023/11/28 07:48:40;;;;;;;8.60;3.88;;;0.50;99.90;;;;;;5046561;28;20472;-76
2023/11/28 07:51:27;;;;;;;6.90;3.75;;;0.60;99.90;;;;;;5008438;28;20038;-76
2023/11/28 07:54:13;;;;;;;6.25;3.50;;;0.60;99.90;;;;;;5030086;28;20539;-76
2023/11/28 07:56:59;;;;;;;6.90;3.15;;;0.60;99.90;;;;;;5024415;28;20114;-76
2023/11/28 07:59:46;;;;;;;7.50;3.30;;;0.60;99.90;;;;;;5040145;28;20037;-76
2023/11/28 08:02:32;;;;;;;6.40;3.40;;;0.60;99.90;;;;;;5013875;28;20529;-76
2023/11/28 08:05:18;;;;;;;7.22;3.10;;;0.50;99.90;;;;;;5023605;28;20215;-76
2023/11/28 08:08:05;;;;;;;5.25;2.95;;;0.60;99.90;;;;;;5030896;28;20090;-76
2023/11/28 08:10:51;;;;;;;7.17;2.77;;;0.60;99.90;;;;;;5028314;28;20041;-76
2023/11/28 08:13:39;;;;;;;5.75;3.10;;;0.60;99.90;;;;;;5010703;28;20424;-76
2023/11/28 08:16:25;;;;;;;6.17;3.17;;;0.60;99.90;;;;;;5017556;28;20041;-77
2023/11/28 08:19:11;;;;;;;7.03;3.03;;;0.60;99.90;;;;;;5019178;28;20045;-77
2023/11/28 08:21:57;;;;;;;8.10;3.22;;;0.50;99.90;;;;;;5045807;28;20057;-76
2023/11/28 08:24:44;;;;;;;8.75;3.17;;;0.50;99.90;;;;;;5022115;28;20041;-76
2023/11/28 08:27:30;;;;;;;7.03;3.35;;;0.50;99.90;;;;;;5020414;28;20347;-76
2023/11/28 08:30:17;;;;;;;7.50;3.17;;;0.50;99.90;;;;;;5004741;28;20064;-76
2023/11/28 08:33:03;;;;;;;5.85;3.42;;;0.60;99.90;;;;;;5047895;28;20579;-76
2023/11/28 08:35:49;;;;;;;7.80;3.60;;;0.60;99.90;;;;;;5036383;28;20075;-76
2023/11/28 08:38:37;;;;;;;7.45;3.83;;;0.50;99.90;;;;;;5030796;28;20387;-76
2023/11/28 08:41:23;;;;;;;7.40;3.40;;;0.60;99.90;;;;;;5018097;28;20034;-77
2023/11/28 08:44:09;;;;;;;5.75;3.20;;;0.40;99.90;;;;;;5030473;28;20041;-76
2023/11/28 08:46:55;;;;;;;7.28;3.38;;;0.50;99.90;;;;;;5032211;28;20103;-76
2023/11/28 08:49:45;;;;;;;7.47;3.25;;;0.50;99.90;;;;;;5037882;28;20765;-76
2023/11/28 08:52:32;;;;;;;8.15;3.33;;;0.50;99.90;;;;;;5030812;28;20049;-76
2023/11/28 08:55:18;;;;;;;7.65;3.40;;;0.50;99.90;;;;;;5017949;28;20038;-76
2023/11/28 08:58:04;;;;;;;7.45;3.40;;;0.50;99.90;;;;;;5026541;28;20120;-76
2023/11/28 09:00:55;;;;;;;6.97;3.20;;;0.60;99.90;;;;;;5039774;28;20055;-76
2023/11/28 09:03:41;;;;;;;6.97;2.67;;;0.60;99.90;;;;;;5025514;28;20037;-76
2023/11/28 09:06:27;;;;;;;8.82;3.15;;;0.50;99.90;;;;;;5021816;28;20076;-75
2023/11/28 09:09:14;;;;;;;8.10;3.58;;;0.50;99.90;;;;;;5036323;28;20044;-77
2023/11/28 09:12:00;;;;;;;8.75;3.38;;;0.50;99.90;;;;;;5046253;28;20042;-75
2023/11/28 09:14:47;;;;;;;10.57;4.10;;;0.50;99.90;;;;;;5018555;28;20474;-75
2023/11/28 09:17:33;;;;;;;8.90;3.28;;;0.40;99.90;;;;;;5036706;28;20052;-76
2023/11/28 09:20:20;;;;;;;7.53;3.50;;;0.40;99.90;;;;;;5026554;28;20070;-76
2023/11/28 09:23:06;;;;;;;7.82;3.50;;;0.50;99.90;;;;;;5025739;28;20371;-76
2023/11/28 09:25:52;;;;;;;7.40;3.45;;;0.40;99.90;;;;;;5029328;28;20037;-76
2023/11/28 09:28:38;;;;;;;7.45;3.78;;;0.30;99.90;;;;;;5050260;28;20037;-76
2023/11/28 09:31:28;;;;;;;7.13;3.33;;;0.20;99.90;;;;;;5027486;28;20057;-76
2023/11/28 09:34:15;;;;;;;7.57;3.22;;;0.30;99.90;;;;;;5027493;28;20466;-76
2023/11/28 09:37:03;;;;;;;8.73;3.80;;;0.30;99.90;;;;;;5052410;28;20049;-76
2023/11/28 09:39:51;;;;;;;;;;;0.30;99.90;;;;;;5027856;28;20284;-76
2023/11/28 09:42:38;;;;;;;7.95;3.20;;;0.20;99.90;;;;;;5021294;28;19964;-76
2023/11/28 09:45:24;;;;;;;8.40;3.13;;;0.30;99.90;;;;;;5007490;28;20115;-76
2023/11/28 09:48:10;;;;;;;7.90;3.90;;;0.30;99.90;;;;;;5021765;28;20048;-76
2023/11/28 09:50:56;;;;;;;5.80;2.83;;;0.40;99.90;;;;;;5039085;28;20048;-76
2023/11/28 09:53:43;;;;;;;8.60;3.38;;;0.40;99.90;;;;;;5029900;28;20065;-78
2023/11/28 09:56:29;;;;;;;8.40;3.88;;;0.50;99.90;;;;;;5033209;28;20440;-79
2023/11/28 09:59:15;;;;;;;6.78;3.10;;;0.60;99.90;;;;;;5047406;28;20140;-79
2023/11/28 10:02:02;;;;;;;6.50;3.33;;;0.90;99.90;;;;;;5018631;28;20065;-78
2023/11/28 10:04:48;;;;;;;6.88;3.28;;;1.20;99.90;;;;;;5012711;28;20540;-79
2023/11/28 10:07:34;;;;;;;7.45;3.55;;;1.50;99.90;;;;;;5061380;28;20048;-78
2023/11/28 10:10:23;;;;;;;7.30;3.50;;;1.80;99.90;;;;;;5048773;28;20100;-79
2023/11/28 10:13:09;;;;;;;6.18;3.50;;;2.20;99.90;;;;;;5035171;28;20052;-78
2023/11/28 10:15:59;;;;;;;7.03;3.05;;;2.50;99.90;;;;;;5029803;28;20124;-77
2023/11/28 10:18:47;;;;;;;5.72;3.03;;;2.90;99.90;;;;;;5024882;28;20466;-78
2023/11/28 10:21:33;;;;;;;5.25;2.75;;;3.20;99.90;;;;;;5042446;28;20445;-77
2023/11/28 10:24:21;;;;;;;6.53;3.00;;;3.60;99.90;;;;;;5019524;28;20092;-77
2023/11/28 10:27:07;;;;;;;4.97;2.70;;;4.00;99.90;;;;;;5018467;28;20052;-78
2023/11/28 10:29:53;;;;;;;5.82;2.72;;;4.30;99.90;;;;;;4991433;28;20469;-77
2023/11/28 10:32:40;;;;;;;6.40;3.13;;;4.70;99.90;;;;;;5005245;28;20565;-78
2023/11/28 10:35:42;;;;;;;6.65;2.83;;;4.90;99.90;;;;;;5017349;28;20057;-77
2023/11/28 10:38:28;;;;;;;5.43;2.47;;;5.30;99.90;;;;;;5027856;28;20135;-78
2023/11/28 10:41:15;;;;;;;6.60;2.90;;;5.80;99.90;;;;;;5023222;28;20041;-76
2023/11/28 10:44:02;;;;;;;4.20;2.50;;;6.00;99.90;;;;;;5008950;28;20187;-76
2023/11/28 10:46:48;;;;;;;3.80;2.47;;;6.30;99.90;;;;;;5016872;28;20359;-75
2023/11/28 10:49:34;;;;;;;4.88;2.90;;;6.60;99.90;;;;;;5016452;28;20121;-75
2023/11/28 10:52:20;;;;;;;6.07;2.80;;;6.40;99.90;;;;;;5017219;28;20038;-76
2023/11/28 10:55:09;;;;;;;5.45;2.60;;;6.50;99.90;;;;;;5018480;28;20033;-76
2023/11/28 10:58:04;;;;;;;4.40;2.55;;;6.70;99.90;;;;;;5022549;28;20072;-77
2023/11/28 11:00:52;;;;;;;5.25;2.35;;;7.10;99.90;;;;;;5018634;28;20453;-75
2023/11/28 11:03:39;;;;;;;4.40;2.50;;;7.70;99.90;;;;;;5043353;28;20045;-77
2023/11/28 11:06:26;;;;;;;4.75;2.85;;;7.90;99.90;;;;;;5051645;28;20075;-77
2023/11/28 11:09:12;;;;;;;3.90;2.08;;;8.20;99.90;;;;;;5059927;28;20053;-77
2023/11/28 11:11:58;;;;;;;3.30;1.98;;;7.80;99.90;;;;;;5021554;28;20065;-77
2023/11/28 11:15:28;;;;;;;6.40;2.30;;;7.60;99.90;;;;;;5031984;28;20044;-77
2023/11/28 11:18:23;;;;;;;5.25;2.47;;;;;;;;;;5033739;28;20057;-76
2023/11/28 11:21:10;;;;;;;5.13;2.65;;;;;;;;;;5053509;28;20347;-76
2023/11/28 11:23:56;;;;;;;6.38;2.70;;;;;;;;;;5026265;28;20074;-76
2023/11/28 11:26:45;;;;;;;5.05;2.50;;;;;;;;;;5011473;28;20079;-75
2023/11/28 11:29:42;;;;;;;6.20;2.97;;;;;;;;;;5031552;28;20037;-76
2023/11/28 11:32:28;;;;;;;5.20;2.57;;;;;;;;;;5025569;28;20103;-76
2023/11/28 11:35:15;;;;;;;5.65;2.72;;;;;;;;;;5015857;28;20088;-75
2023/11/28 11:38:01;;;;;;;4.97;2.60;;;;;;;;;;5028160;28;20068;-76
2023/11/28 11:40:48;;;;;;;6.28;2.45;;;;;;;;;;5030520;28;20482;-76
2023/11/28 11:43:36;;;;;;;5.22;2.83;;;;;;;;;;5016078;28;20099;-76
2023/11/28 11:46:24;;;;;;;6.57;3.03;;;;;;;;;;5037870;28;20033;-76
2023/11/28 11:49:10;;;;;;;5.50;2.90;;;;;;;;;;5048393;28;20091;-76
2023/11/28 11:51:58;;;;;;;5.05;3.00;;;;;;;;;;5017814;28;20037;-76
2023/11/28 11:54:45;;;;;;;4.47;2.40;;;;;;;;;;5019183;28;20033;-76
2023/11/28 11:57:31;;;;;;;4.53;2.70;;;;;;;;;;5049720;28;20377;-76
2023/11/28 12:00:18;;;;;;;6.47;3.15;;;;;;;;;;5020449;28;20045;-75
2023/11/28 12:03:04;;;;;;;5.15;2.95;;;;;;;;;;5044552;28;20455;-75
2023/11/28 12:05:51;;;;;;;4.70;2.97;;;;;;;;;;5037815;28;20461;-76
2023/11/28 12:08:38;;;;;;;4.30;2.90;;;;;;;;;;5036957;28;20734;-76
2023/11/28 12:11:24;;;;;;;4.78;2.95;;;;;;;;;;5027915;28;20092;-76
2023/11/28 12:14:11;;;;;;;3.78;2.22;;;;;;;;;;5032667;28;20045;-77
2023/11/28 12:16:58;;;;;;;4.82;2.33;;;;;;;;;;5037473;28;20123;-76
2023/11/28 12:19:44;;;;;;;3.75;2.33;;;;;;;;;;5033759;28;20052;-75
2023/11/28 12:22:33;;;;;;;3.40;1.70;;;;;;;;;;5042146;28;20033;-76
2023/11/28 12:25:20;;;;;;;3.08;1.85;;;;;;;;;;5030259;28;20033;-76
2023/11/28 12:28:07;;;;;;;2.80;1.88;;;;;;;;;;5041237;28;20087;-76
2023/11/28 12:30:55;;;;;;;3.42;1.75;;;;;;;;;;5033391;28;20079;-75
2023/11/28 12:33:48;;;;;;;4.18;2.28;;;;;;;;;;5036918;28;20343;-75
2023/11/28 12:36:35;;;;;;;3.90;2.28;;;;;;;;;;5022233;28;20522;-75
2023/11/28 12:39:22;;;;;;;4.22;2.30;;;;;;;;;;5028244;28;20041;-75
2023/11/28 12:42:09;;;;;;;4.23;2.50;;;;;;;;;;5019033;28;20072;-76
2023/11/28 12:44:59;;;;;;;4.85;2.78;;;;;;;;;;5019296;28;20279;-75
2023/11/28 12:47:45;;;;;;;3.70;2.13;;;;;;;;;;5041560;28;20142;-75
2023/11/28 12:50:31;;;;;;;4.53;2.75;;;;;;;;;;5034106;28;20095;-76
2023/11/28 12:53:23;;;;;;;3.22;1.95;;;;;;;;;;5043844;28;20192;-75
2023/11/28 12:56:10;;;;;;;3.72;2.03;;;;;;;;;;5048404;28;20044;-75
2023/11/28 12:58:56;;;;;;;3.40;2.10;;;;;;;;;;5004745;28;20056;-75
2023/11/28 13:01:43;;;;;;;4.43;2.47;;;;;;;;;;5041125;28;20033;-74
2023/11/28 13:04:29;;;;;;;3.63;2.05;;;;;;;;;;5021537;28;20042;-74
2023/11/28 13:07:15;;;;;;;3.67;1.80;;;2.50;99.90;;;;;;5029247;28;20037;-75
2023/11/28 13:10:03;;;;;;;3.67;1.83;;;2.40;99.90;;;;;;5019150;28;20037;-75
2023/11/28 13:12:49;;;;;;;;;;;2.80;99.90;;;;;;4996720;28;20056;-75
2023/11/28 13:15:35;;;;;;;5.30;2.10;;;3.20;99.90;;;;;;5021549;28;19909;-75
2023/11/28 13:18:22;;;;;;;6.55;1.90;;;3.10;99.90;;;;;;5033266;28;20474;-75
2023/11/28 13:21:08;;;;;;;3.22;1.65;;;3.00;99.90;;;;;;5036103;28;20401;-76
2023/11/28 13:23:55;;;;;;;3.55;1.92;;;2.90;99.90;;;;;;5042038;28;20037;-75
2023/11/28 13:26:41;;;;;;;3.90;1.90;;;2.60;99.90;;;;;;5019345;28;20037;-75
2023/11/28 13:29:27;;;;;;;3.20;1.98;;;2.50;99.90;;;;;;5012127;28;20037;-75
2023/11/28 13:32:13;;;;;;;3.63;2.20;;;2.60;99.90;;;;;;5021186;28;20080;-75
2023/11/28 13:34:59;;;;;;;3.65;2.13;;;2.60;99.90;;;;;;5000222;28;20077;-75
2023/11/28 13:37:46;;;;;;;6.43;3.00;;;2.60;99.90;;;;;;5005866;28;20076;-75
2023/11/28 13:40:32;;;;;;;5.93;2.97;;;2.50;99.90;;;;;;5043289;28;20033;-74
2023/11/28 13:43:18;;;;;;;5.10;2.80;;;2.50;99.90;;;;;;5017789;28;20030;-75
2023/11/28 13:46:05;;;;;;;3.88;2.40;;;2.50;99.90;;;;;;5014673;28;20890;-75
2023/11/28 13:48:52;;;;;;;3.95;2.67;;;2.40;99.90;;;;;;5054847;28;20075;-75
2023/11/28 13:51:38;;;;;;;3.93;2.47;;;2.60;99.90;;;;;;5017341;28;20045;-75
2023/11/28 13:54:24;;;;;;;4.80;2.42;;;2.80;99.90;;;;;;4994585;28;20622;-76
2023/11/28 13:57:10;;;;;;;4.35;2.40;;;3.20;99.90;;;;;;5022126;28;20033;-76
2023/11/28 13:59:56;;;;;;;8.02;3.53;;;3.60;99.90;;;;;;5028125;28;20049;-76
2023/11/28 14:02:43;;;;;;;5.50;3.30;;;3.60;99.90;;;;;;5034247;28;20392;-76
2023/11/28 14:05:29;;;;;;;6.00;3.70;;;3.40;99.90;;;;;;5018065;28;20037;-76
2023/11/28 14:08:15;;;;;;;6.50;3.67;;;3.30;99.90;;;;;;5025966;28;20417;-75
2023/11/28 14:11:01;;;;;;;5.80;2.85;;;3.20;99.90;;;;;;5014918;28;20132;-76
2023/11/28 14:13:47;;;;;;;5.72;3.03;;;3.10;99.90;;;;;;5037450;28;20052;-75
2023/11/28 14:16:34;;;;;;;5.97;3.05;;;3.00;99.90;;;;;;5035626;28;20044;-76
2023/11/28 14:19:20;;;;;;;5.80;3.13;;;2.90;99.90;;;;;;5052462;28;20536;-75
2023/11/28 14:22:08;;;;;;;4.97;2.78;;;2.90;99.90;;;;;;5003558;28;20038;-75
2023/11/28 14:24:54;;;;;;;6.47;3.55;;;2.80;99.90;;;;;;5040489;28;20037;-75
2023/11/28 14:27:41;;;;;;;6.72;3.33;;;2.70;99.90;;;;;;5035362;28;20048;-76
2023/11/28 14:30:27;;;;;;;4.82;2.80;;;2.60;99.90;;;;;;5021537;28;20046;-75
2023/11/28 14:33:13;;;;;;;5.95;3.05;;;2.50;99.90;;;;;;5043155;28;20037;-76
2023/11/28 14:35:59;;;;;;;4.53;2.38;;;2.40;99.90;;;;;;5019816;28;20052;-75
2023/11/28 14:38:46;;;;;;;6.35;3.30;;;2.30;99.90;;;;;;5051818;28;20075;-76
2023/11/28 14:41:32;;;;;;;6.65;3.63;;;2.30;99.90;;;;;;5001655;28;20049;-75
2023/11/28 14:44:18;;;;;;;5.70;3.05;;;2.20;99.90;;;;;;5014504;28;20145;-75
2023/11/28 14:47:04;;;;;;;10.27;4.68;;;2.10;99.90;;;;;;5039163;28;20112;-75
2023/11/28 14:49:50;;;;;;;11.95;6.90;;;2.10;99.90;;;;;;5007802;28;20153;-75